createdAt,value
2018-02-19T00:00:31.421Z,25.40
2018-02-19T00:02:59.017Z,25.70
2018-02-19T00:05:27.354Z,25.70
2018-02-19T00:07:55.291Z,25.80
2018-02-19T00:10:23.063Z,25.80
2018-02-19T00:12:50.639Z,25.80
2018-02-19T00:15:18.225Z,25.90
2018-02-19T00:17:45.792Z,26.30
2018-02-19T00:20:13.401Z,26.40
2018-02-19T00:22:40.950Z,26.60
2018-02-19T00:25:08.480Z,26.70
2018-02-19T00:27:36.996Z,26.50
2018-02-19T00:30:04.562Z,26.50
2018-02-19T00:32:32.096Z,26.40
2018-02-19T00:34:59.664Z,26.40
2018-02-19T00:37:27.227Z,26.40
2018-02-19T00:39:54.813Z,26.40
2018-02-19T00:42:22.352Z,26.40
2018-02-19T00:44:50.003Z,26.40
2018-02-19T00:47:17.600Z,26.30
2018-02-19T00:49:45.193Z,26.30
2018-02-19T00:52:12.793Z,26.20
2018-02-19T00:54:40.355Z,26.20
2018-02-19T00:57:07.912Z,26.20
2018-02-19T00:59:35.882Z,26.30
2018-02-19T01:02:03.515Z,26.30
2018-02-19T01:04:31.871Z,26.30
2018-02-19T01:06:59.413Z,26.30
2018-02-19T01:09:27.077Z,26.30
2018-02-19T01:11:54.671Z,26.30
2018-02-19T01:14:23.003Z,26.40
2018-02-19T01:16:50.567Z,26.40
2018-02-19T01:19:18.153Z,26.30
2018-02-19T01:21:45.713Z,26.30
2018-02-19T01:24:14.033Z,26.20
2018-02-19T01:26:41.671Z,26.20
2018-02-19T01:29:09.990Z,26.20
2018-02-19T01:31:37.554Z,26.20
2018-02-19T01:34:05.138Z,26.20
2018-02-19T01:36:32.727Z,26.00
2018-02-19T01:39:01.071Z,26.10
2018-02-19T01:41:28.756Z,26.10
2018-02-19T01:43:57.083Z,26.20
2018-02-19T01:46:24.618Z,26.00
2018-02-19T01:48:52.235Z,26.10
2018-02-19T01:51:19.873Z,26.00
2018-02-19T01:53:47.462Z,26.10
2018-02-19T01:56:15.182Z,26.20
2018-02-19T01:58:42.773Z,26.00
2018-02-19T02:01:10.387Z,26.10
2018-02-19T02:03:38.161Z,26.00
2018-02-19T02:06:05.754Z,26.10
2018-02-19T02:08:33.355Z,26.00
2018-02-19T02:11:01.707Z,26.00
2018-02-19T02:13:29.255Z,26.00
2018-02-19T02:15:56.929Z,26.00
2018-02-19T02:18:24.519Z,26.00
2018-02-19T02:20:52.111Z,26.40
2018-02-19T02:23:19.659Z,26.60
2018-02-19T02:25:47.259Z,26.10
2018-02-19T02:28:14.806Z,26.10
2018-02-19T02:30:42.587Z,26.00
2018-02-19T02:33:10.176Z,26.00
2018-02-19T02:35:38.490Z,26.20
2018-02-19T02:38:06.060Z,26.30
2018-02-19T02:40:33.644Z,26.00
2018-02-19T02:43:01.223Z,25.90
2018-02-19T02:45:28.808Z,25.90
2018-02-19T02:47:56.348Z,25.90
2018-02-19T02:50:24.704Z,26.20
2018-02-19T02:52:52.245Z,26.70
2018-02-19T02:55:19.829Z,25.90
2018-02-19T02:57:47.425Z,26.00
2018-02-19T03:00:14.978Z,26.00
2018-02-19T03:02:42.587Z,25.90
2018-02-19T03:05:10.147Z,27.60
2018-02-19T03:07:37.828Z,26.00
2018-02-19T03:10:05.414Z,26.60
2018-02-19T03:12:33.864Z,26.70
2018-02-19T03:15:01.488Z,26.70
2018-02-19T03:17:29.108Z,26.10
2018-02-19T03:19:57.459Z,26.90
2018-02-19T03:22:25.122Z,26.80
2018-02-19T03:24:53.665Z,27.90
2018-02-19T03:27:21.207Z,27.90
2018-02-19T03:29:48.770Z,26.90
2018-02-19T03:32:16.372Z,27.00
2018-02-19T03:34:43.923Z,27.50
2018-02-19T03:37:11.485Z,27.90
2018-02-19T03:39:39.123Z,28.10
2018-02-19T03:42:06.690Z,27.60
2018-02-19T03:44:34.271Z,27.60
2018-02-19T03:47:01.827Z,28.10
2018-02-19T03:49:29.409Z,28.10
2018-02-19T03:51:56.958Z,28.10
2018-02-19T03:54:24.525Z,28.10
2018-02-19T03:56:52.108Z,28.10
2018-02-19T03:59:20.427Z,28.80
2018-02-19T04:01:48.054Z,28.90
2018-02-19T04:04:15.803Z,28.10
2018-02-19T04:06:43.430Z,28.10
2018-02-19T04:09:11.168Z,28.10
2018-02-19T04:11:38.721Z,28.10
2018-02-19T04:14:06.294Z,28.50
2018-02-19T04:16:33.887Z,28.10
2018-02-19T04:19:01.468Z,28.10
2018-02-19T04:21:29.886Z,28.20
2018-02-19T04:23:57.411Z,28.10
2018-02-19T04:26:25.948Z,28.10
2018-02-19T04:28:53.509Z,28.10
2018-02-19T04:31:21.046Z,28.10
2018-02-19T04:33:48.642Z,28.60
2018-02-19T04:36:16.232Z,28.10
2018-02-19T04:38:44.620Z,28.20
2018-02-19T04:41:12.954Z,28.10
2018-02-19T04:43:40.578Z,28.10
2018-02-19T04:46:08.749Z,28.10
2018-02-19T04:48:36.298Z,28.10
2018-02-19T04:51:03.880Z,28.10
2018-02-19T04:53:31.416Z,28.10
2018-02-19T04:55:59.106Z,28.10
2018-02-19T04:58:26.680Z,28.10
2018-02-19T05:00:54.232Z,28.10
2018-02-19T05:03:21.844Z,28.10
2018-02-19T05:05:50.178Z,28.10
2018-02-19T05:08:17.761Z,28.10
2018-02-19T05:10:45.314Z,28.10
2018-02-19T05:13:13.082Z,28.10
2018-02-19T05:15:40.776Z,28.10
2018-02-19T05:18:09.114Z,28.10
2018-02-19T05:20:36.814Z,28.10
2018-02-19T05:23:05.172Z,28.10
2018-02-19T05:25:32.882Z,28.10
2018-02-19T05:28:00.450Z,28.10
2018-02-19T05:30:28.052Z,28.10
2018-02-19T05:32:56.462Z,28.10
2018-02-19T05:35:24.028Z,28.10
2018-02-19T05:37:51.616Z,28.70
2018-02-19T05:40:19.169Z,28.10
2018-02-19T05:42:46.726Z,28.10
2018-02-19T05:45:14.410Z,28.10
2018-02-19T05:47:41.932Z,28.10
2018-02-19T05:50:09.535Z,28.10
2018-02-19T05:52:37.114Z,28.60
2018-02-19T05:55:04.829Z,28.10
2018-02-19T05:57:32.543Z,28.10
2018-02-19T06:00:00.091Z,28.10
2018-02-19T06:02:27.846Z,28.10
2018-02-19T06:04:55.392Z,28.50
2018-02-19T06:07:22.944Z,29.00
2018-02-19T06:09:50.535Z,28.10
2018-02-19T06:12:18.098Z,28.10
2018-02-19T06:14:45.639Z,28.10
2018-02-19T06:17:13.255Z,28.10
2018-02-19T06:19:40.890Z,28.10
2018-02-19T06:22:09.232Z,29.70
2018-02-19T06:24:36.837Z,29.70
2018-02-19T06:27:05.190Z,28.10
2018-02-19T06:29:32.756Z,28.10
2018-02-19T06:32:00.299Z,28.10
2018-02-19T06:34:27.986Z,28.10
2018-02-19T06:36:56.298Z,28.10
2018-02-19T06:39:23.878Z,28.10
2018-02-19T06:41:51.520Z,28.10
2018-02-19T06:44:19.117Z,28.10
2018-02-19T06:46:46.714Z,28.10
2018-02-19T06:49:15.214Z,26.60
2018-02-19T06:51:42.796Z,26.70
2018-02-19T06:54:10.348Z,26.80
2018-02-19T06:56:37.931Z,28.10
2018-02-19T06:59:05.675Z,28.10
2018-02-19T07:01:33.251Z,26.90
2018-02-19T07:04:00.862Z,28.10
2018-02-19T07:06:28.864Z,28.20
2018-02-19T07:08:56.450Z,28.30
2018-02-19T07:11:23.995Z,28.30
2018-02-19T07:13:51.585Z,31.00
2018-02-19T07:16:19.173Z,28.20
2018-02-19T07:18:46.713Z,28.40
2018-02-19T07:21:15.076Z,27.60
2018-02-19T07:23:43.452Z,28.30
2018-02-19T07:26:11.032Z,28.30
2018-02-19T07:28:39.330Z,26.90
2018-02-19T07:31:06.924Z,26.80
2018-02-19T07:33:34.475Z,28.70
2018-02-19T07:36:02.031Z,28.10
2018-02-19T07:38:29.753Z,27.50
2018-02-19T07:40:58.068Z,28.20
2018-02-19T07:43:25.617Z,28.10
2018-02-19T07:45:53.213Z,28.10
2018-02-19T07:48:20.827Z,28.10
2018-02-19T07:50:48.384Z,28.10
2018-02-19T07:53:15.991Z,29.70
2018-02-19T07:55:43.541Z,28.10
2018-02-19T07:58:11.179Z,28.10
2018-02-19T08:00:38.775Z,30.00
2018-02-19T08:03:06.353Z,32.10
2018-02-19T08:05:34.908Z,31.00
2018-02-19T08:08:02.485Z,32.40
2018-02-19T08:10:30.101Z,30.90
2018-02-19T08:12:57.639Z,28.10
2018-02-19T08:15:25.929Z,26.40
2018-02-19T08:17:53.573Z,26.30
2018-02-19T08:20:22.205Z,28.20
2018-02-19T08:22:49.881Z,28.10
2018-02-19T08:25:17.453Z,28.10
2018-02-19T08:27:45.045Z,28.10
2018-02-19T08:30:13.453Z,28.20
2018-02-19T08:32:41.058Z,28.10
2018-02-19T08:35:08.634Z,28.10
2018-02-19T08:37:36.971Z,26.30
2018-02-19T08:40:04.824Z,26.30
2018-02-19T08:42:32.436Z,26.00
2018-02-19T08:45:00.857Z,25.80
2018-02-19T08:47:28.433Z,25.80
2018-02-19T08:49:56.221Z,25.80
2018-02-19T08:52:23.782Z,25.60
2018-02-19T08:54:51.374Z,25.10
2018-02-19T08:57:19.782Z,25.10
2018-02-19T08:59:47.351Z,25.10
2018-02-19T09:02:14.934Z,25.00
2018-02-19T09:04:42.508Z,25.20
2018-02-19T09:07:10.059Z,25.20
2018-02-19T09:09:38.414Z,25.30
2018-02-19T09:12:06.022Z,25.30
2018-02-19T09:14:34.391Z,25.10
2018-02-19T09:17:01.952Z,25.20
2018-02-19T09:19:29.582Z,25.10
2018-02-19T09:21:57.346Z,25.00
2018-02-19T09:24:24.937Z,24.80
2018-02-19T09:26:53.451Z,24.80
2018-02-19T09:29:21.021Z,24.80
2018-02-19T09:31:48.614Z,24.60
2018-02-19T09:34:16.253Z,24.30
2018-02-19T09:36:44.262Z,24.50
2018-02-19T09:39:11.878Z,24.30
2018-02-19T09:41:39.447Z,24.20
2018-02-19T09:44:06.998Z,24.40
2018-02-19T09:46:34.564Z,24.30
2018-02-19T09:49:02.114Z,24.10
2018-02-19T09:51:29.714Z,24.10
2018-02-19T09:53:58.788Z,24.00
2018-02-19T09:56:26.452Z,24.20
2018-02-19T09:58:54.057Z,24.10
2018-02-19T10:01:22.632Z,23.80
2018-02-19T10:03:50.956Z,23.40
2018-02-19T10:06:18.616Z,24.00
2018-02-19T10:08:46.186Z,23.90
2018-02-19T10:11:13.773Z,23.90
2018-02-19T10:13:41.318Z,24.00
2018-02-19T10:16:08.876Z,24.20
2018-02-19T10:18:36.546Z,24.80
2018-02-19T10:21:04.069Z,24.60
2018-02-19T10:23:31.613Z,24.60
2018-02-19T10:25:59.189Z,24.30
2018-02-19T10:28:26.952Z,24.50
2018-02-19T10:30:54.539Z,24.40
2018-02-19T10:33:22.388Z,24.40
2018-02-19T10:35:49.980Z,25.30
2018-02-19T10:38:17.554Z,25.60
2018-02-19T10:40:46.385Z,26.00
2018-02-19T10:43:13.937Z,25.50
2018-02-19T10:45:41.540Z,25.60
2018-02-19T10:48:09.110Z,24.90
2018-02-19T10:50:38.177Z,24.60
2018-02-19T10:53:05.763Z,24.60
2018-02-19T10:55:33.332Z,24.60
2018-02-19T10:58:01.702Z,25.20
2018-02-19T11:00:34.890Z,25.30
2018-02-19T11:03:02.478Z,26.60
2018-02-19T11:05:30.777Z,25.80
2018-02-19T11:07:58.354Z,25.90
2018-02-19T11:10:25.956Z,25.70
2018-02-19T11:12:53.510Z,25.40
2018-02-19T11:15:21.094Z,25.40
2018-02-19T11:17:49.406Z,25.00
2018-02-19T11:20:17.022Z,25.10
2018-02-19T11:22:44.584Z,24.90
2018-02-19T11:25:12.924Z,25.20
2018-02-19T11:27:40.525Z,25.20
2018-02-19T11:30:08.196Z,26.70
2018-02-19T11:32:36.528Z,26.30
2018-02-19T11:35:04.064Z,26.30
2018-02-19T11:37:31.638Z,26.10
2018-02-19T11:39:59.232Z,26.10
2018-02-19T11:42:26.816Z,26.00
2018-02-19T11:44:55.160Z,26.20
2018-02-19T11:47:22.746Z,26.30
2018-02-19T11:49:51.100Z,26.20
2018-02-19T11:52:20.167Z,25.60
2018-02-19T11:54:47.881Z,25.70
2018-02-19T11:57:16.202Z,25.70
2018-02-19T11:59:44.020Z,25.70
2018-02-19T12:02:12.391Z,25.70
2018-02-19T12:04:39.930Z,25.70
2018-02-19T12:07:07.621Z,25.80
2018-02-19T12:09:36.139Z,25.40
2018-02-19T12:12:03.798Z,25.40
2018-02-19T12:14:31.463Z,25.30
2018-02-19T12:16:59.033Z,25.30
2018-02-19T12:19:26.640Z,25.00
2018-02-19T12:21:54.191Z,25.30
2018-02-19T12:24:21.805Z,25.30
2018-02-19T12:26:49.416Z,25.40
2018-02-19T12:29:17.025Z,25.80
2018-02-19T12:31:44.593Z,25.50
2018-02-19T12:34:12.251Z,25.50
2018-02-19T12:36:39.835Z,25.70
2018-02-19T12:39:07.428Z,25.90
2018-02-19T12:41:35.805Z,26.20
2018-02-19T12:44:04.127Z,26.50
2018-02-19T12:46:31.796Z,26.40
2018-02-19T12:48:59.390Z,26.50
2018-02-19T12:51:26.937Z,27.50
2018-02-19T12:53:54.521Z,29.30
2018-02-19T12:56:22.105Z,26.70
2018-02-19T12:58:49.699Z,26.60
2018-02-19T13:01:17.380Z,26.50
2018-02-19T13:03:45.015Z,26.60
2018-02-19T13:06:12.594Z,26.50
2018-02-19T13:08:40.179Z,26.30
2018-02-19T13:11:07.799Z,27.00
2018-02-19T13:13:35.383Z,26.30
2018-02-19T13:16:02.967Z,26.20
2018-02-19T13:18:31.253Z,25.80
2018-02-19T13:20:59.689Z,25.80
2018-02-19T13:23:27.362Z,25.80
2018-02-19T13:25:54.927Z,25.90
2018-02-19T13:28:22.723Z,25.80
2018-02-19T13:30:51.095Z,25.90
2018-02-19T13:33:19.443Z,25.60
2018-02-19T13:35:47.033Z,25.70
2018-02-19T13:38:15.548Z,25.60
2018-02-19T13:40:43.091Z,25.60
2018-02-19T13:43:10.788Z,25.60
2018-02-19T13:45:38.373Z,25.60
2018-02-19T13:48:05.945Z,25.70
2018-02-19T13:50:33.533Z,25.70
2018-02-19T13:53:01.145Z,26.00
2018-02-19T13:55:28.699Z,25.80
2018-02-19T13:57:56.301Z,28.10
2018-02-19T14:00:24.752Z,27.90
2018-02-19T14:02:54.004Z,26.10
2018-02-19T14:05:21.559Z,26.10
2018-02-19T14:07:49.349Z,25.80
2018-02-19T14:10:16.919Z,25.80
2018-02-19T14:12:44.501Z,25.90
2018-02-19T14:15:13.610Z,25.60
2018-02-19T14:17:41.926Z,26.10
2018-02-19T14:20:09.587Z,26.10
2018-02-19T14:22:37.185Z,25.90
2018-02-19T14:25:04.930Z,27.80
2018-02-19T14:27:32.668Z,25.80
2018-02-19T14:30:00.269Z,25.80
2018-02-19T14:32:27.828Z,25.80
2018-02-19T14:34:55.377Z,28.10
2018-02-19T14:37:23.010Z,28.10
2018-02-19T14:39:50.701Z,26.10
2018-02-19T14:42:18.438Z,28.10
2018-02-19T14:44:46.018Z,26.20
2018-02-19T14:47:13.657Z,28.10
2018-02-19T14:49:41.252Z,26.50
2018-02-19T14:52:08.819Z,27.70
2018-02-19T14:54:36.455Z,26.90
2018-02-19T14:57:04.042Z,28.10
2018-02-19T14:59:31.670Z,29.10
2018-02-19T15:01:59.425Z,28.10
2018-02-19T15:04:27.730Z,28.10
2018-02-19T15:06:55.431Z,28.10
2018-02-19T15:09:23.768Z,28.10
2018-02-19T15:11:51.375Z,28.10
2018-02-19T15:14:19.756Z,27.40
2018-02-19T15:16:48.116Z,28.10
2018-02-19T15:19:15.720Z,28.10
2018-02-19T15:21:43.408Z,28.20
2018-02-19T15:24:11.212Z,28.10
2018-02-19T15:26:39.719Z,28.10
2018-02-19T15:29:07.299Z,28.10
2018-02-19T15:31:34.864Z,28.80
2018-02-19T15:34:02.503Z,28.10
2018-02-19T15:36:30.054Z,29.20
2018-02-19T15:38:57.610Z,28.40
2018-02-19T15:41:25.964Z,28.10
2018-02-19T15:43:53.614Z,28.10
2018-02-19T15:46:21.171Z,28.10
2018-02-19T15:48:48.771Z,28.10
2018-02-19T15:51:16.494Z,28.10
2018-02-19T15:53:44.956Z,28.10
2018-02-19T15:56:12.530Z,28.10
2018-02-19T15:58:41.640Z,28.10
2018-02-19T16:01:09.199Z,28.10
2018-02-19T16:03:36.798Z,28.10
2018-02-19T16:06:04.354Z,28.10
2018-02-19T16:08:32.010Z,28.10
2018-02-19T16:10:59.555Z,28.10
2018-02-19T16:13:27.898Z,28.60
2018-02-19T16:15:55.471Z,28.60
2018-02-19T16:18:23.123Z,28.10
2018-02-19T16:20:50.733Z,28.00
2018-02-19T16:23:18.300Z,27.70
2018-02-19T16:25:45.906Z,28.10
2018-02-19T16:28:13.458Z,29.20
2018-02-19T16:30:41.054Z,29.40
2018-02-19T16:33:09.383Z,28.20
2018-02-19T16:35:36.951Z,28.00
2018-02-19T16:38:04.557Z,29.00
2018-02-19T16:40:32.890Z,28.00
2018-02-19T16:43:00.462Z,28.00
2018-02-19T16:45:28.057Z,29.20
2018-02-19T16:47:55.655Z,28.90
2018-02-19T16:50:23.255Z,28.00
2018-02-19T16:52:50.919Z,29.80
2018-02-19T16:55:18.523Z,28.60
2018-02-19T16:57:46.126Z,28.60
2018-02-19T17:00:13.949Z,28.70
2018-02-19T17:02:41.502Z,25.70
2018-02-19T17:05:09.057Z,24.50
2018-02-19T17:07:36.665Z,24.70
2018-02-19T17:10:04.232Z,25.10
2018-02-19T17:12:31.837Z,25.20
2018-02-19T17:14:59.416Z,26.20
2018-02-19T17:17:27.156Z,26.10
2018-02-19T17:19:54.742Z,26.50
2018-02-19T17:22:22.290Z,26.50
2018-02-19T17:24:49.888Z,26.60
2018-02-19T17:27:17.480Z,26.50
2018-02-19T17:29:45.854Z,26.10
2018-02-19T17:32:14.188Z,26.80
2018-02-19T17:34:41.736Z,26.90
2018-02-19T17:37:09.494Z,26.60
2018-02-19T17:39:37.028Z,26.60
2018-02-19T17:42:04.696Z,26.40
2018-02-19T17:44:32.279Z,27.30
2018-02-19T17:46:59.845Z,36.40
2018-02-19T17:49:27.518Z,40.00
2018-02-19T17:51:55.175Z,36.20
2018-02-19T17:54:22.866Z,36.00
2018-02-19T17:56:50.423Z,34.10
2018-02-19T17:59:18.160Z,34.10
2018-02-19T18:01:45.732Z,33.40
2018-02-19T18:04:13.308Z,33.00
2018-02-19T18:06:40.904Z,31.80
2018-02-19T18:09:08.536Z,34.00
2018-02-19T18:11:36.932Z,32.80
2018-02-19T18:14:05.274Z,31.20
2018-02-19T18:16:32.874Z,31.20
2018-02-19T18:19:01.235Z,30.30
2018-02-19T18:21:29.574Z,29.70
2018-02-19T18:23:57.191Z,29.70
2018-02-19T18:26:25.703Z,29.90
2018-02-19T18:28:53.306Z,29.90
2018-02-19T18:31:20.872Z,28.70
2018-02-19T18:33:48.458Z,28.40
2018-02-19T18:36:16.069Z,28.40
2018-02-19T18:38:43.650Z,28.70
2018-02-19T18:41:11.251Z,28.40
2018-02-19T18:43:38.843Z,28.20
2018-02-19T18:46:06.463Z,28.60
2018-02-19T18:48:34.083Z,28.60
2018-02-19T18:51:01.833Z,30.00
2018-02-19T18:53:29.467Z,28.50
2018-02-19T18:55:57.071Z,28.50
2018-02-19T18:58:24.695Z,30.60
2018-02-19T19:00:52.333Z,29.60
2018-02-19T19:03:19.944Z,28.60
2018-02-19T19:05:47.575Z,30.50
2018-02-19T19:08:26.997Z,28.20
2018-02-19T19:10:54.781Z,30.00
2018-02-19T19:13:22.398Z,28.20
2018-02-19T19:15:50.763Z,28.20
2018-02-19T19:18:18.427Z,28.30
2018-02-19T19:20:46.855Z,29.90
2018-02-19T19:23:14.465Z,30.10
2018-02-19T19:25:42.069Z,29.30
2018-02-19T19:28:09.766Z,29.40
2018-02-19T19:30:38.277Z,28.20
2018-02-19T19:33:06.977Z,28.20
2018-02-19T19:35:35.608Z,28.10
2018-02-19T19:38:04.014Z,28.10
2018-02-19T19:40:31.607Z,28.10
2018-02-19T19:42:59.269Z,28.20
2018-02-19T19:45:26.932Z,29.60
2018-02-19T19:47:54.561Z,28.10
2018-02-19T19:50:22.171Z,28.10
2018-02-19T19:52:49.798Z,28.20
2018-02-19T19:55:18.705Z,28.20
2018-02-19T19:57:46.313Z,28.20
2018-02-19T20:00:14.027Z,28.20
2018-02-19T20:02:41.658Z,28.20
2018-02-19T20:05:10.041Z,28.20
2018-02-19T20:07:38.461Z,28.80
2018-02-19T20:10:06.170Z,28.20
2018-02-19T20:12:33.814Z,28.20
2018-02-19T20:15:01.528Z,28.20
2018-02-19T20:17:29.906Z,28.10
2018-02-19T20:19:58.243Z,28.10
2018-02-19T20:22:25.903Z,28.10
2018-02-19T20:24:53.606Z,28.10
2018-02-19T20:27:21.216Z,28.20
2018-02-19T20:29:48.839Z,28.20
2018-02-19T20:32:16.522Z,28.20
2018-02-19T20:34:44.227Z,28.10
2018-02-19T20:37:11.886Z,28.60
2018-02-19T20:39:39.513Z,28.10
2018-02-19T20:42:07.148Z,27.50
2018-02-19T20:44:34.766Z,27.50
2018-02-19T20:47:03.723Z,27.20
2018-02-19T20:49:31.371Z,27.10
2018-02-19T20:51:59.598Z,27.20
2018-02-19T20:54:27.224Z,27.00
2018-02-19T20:56:54.974Z,26.80
2018-02-19T20:59:22.565Z,26.90
2018-02-19T21:01:50.196Z,26.80
2018-02-19T21:04:18.987Z,26.80
2018-02-19T21:06:46.579Z,26.60
2018-02-19T21:09:14.828Z,26.60
2018-02-19T21:11:42.671Z,26.60
2018-02-19T21:14:10.313Z,26.50
2018-02-19T21:16:38.686Z,26.80
2018-02-19T21:19:07.173Z,26.30
2018-02-19T21:21:35.540Z,26.60
2018-02-19T21:24:03.209Z,26.60
2018-02-19T21:26:30.966Z,26.20
2018-02-19T21:28:58.546Z,26.70
2018-02-19T21:31:26.924Z,26.60
2018-02-19T21:33:55.266Z,26.70
2018-02-19T21:36:22.889Z,26.70
2018-02-19T21:38:50.476Z,26.60
2018-02-19T21:41:18.022Z,26.50
2018-02-19T21:43:45.613Z,26.70
2018-02-19T21:46:14.006Z,26.60
2018-02-19T21:48:41.651Z,26.60
2018-02-19T21:51:09.188Z,26.80
2018-02-19T21:53:36.824Z,26.60
2018-02-19T21:56:04.475Z,26.50
2018-02-19T21:58:32.054Z,26.50
2018-02-19T22:00:59.643Z,26.50
2018-02-19T22:03:28.192Z,26.40
2018-02-19T22:05:55.768Z,26.40
2018-02-19T22:08:23.364Z,26.30
2018-02-19T22:10:50.922Z,26.30
2018-02-19T22:13:18.652Z,26.20
2018-02-19T22:15:50.544Z,26.20
2018-02-19T22:18:27.367Z,26.00
2018-02-19T22:20:54.980Z,26.10
2018-02-19T22:23:22.654Z,26.60
2018-02-19T22:25:50.236Z,26.10
2018-02-19T22:28:18.695Z,26.10
2018-02-19T22:30:46.872Z,26.10
2018-02-19T22:33:14.563Z,26.00
2018-02-19T22:35:42.129Z,26.00
2018-02-19T22:38:09.746Z,26.00
2018-02-19T22:40:37.410Z,25.90
2018-02-19T22:43:04.974Z,25.90
2018-02-19T22:45:33.360Z,25.90
2018-02-19T22:48:01.678Z,25.80
2018-02-19T22:50:29.226Z,25.90
2018-02-19T22:52:56.815Z,26.10
2018-02-19T22:55:24.356Z,26.00
2018-02-19T22:57:51.932Z,26.10
2018-02-19T23:00:19.510Z,26.10
2018-02-19T23:02:48.770Z,26.10
2018-02-19T23:05:16.346Z,26.10
2018-02-19T23:07:43.995Z,26.00
2018-02-19T23:10:12.304Z,26.10
2018-02-19T23:12:39.979Z,26.10
2018-02-19T23:15:07.562Z,26.00
2018-02-19T23:17:35.894Z,26.10
2018-02-19T23:20:03.470Z,26.10
2018-02-19T23:22:31.056Z,26.10
2018-02-19T23:24:59.434Z,26.10
2018-02-19T23:27:27.945Z,26.10
2018-02-19T23:29:55.530Z,26.10
2018-02-19T23:32:23.074Z,26.10
2018-02-19T23:34:50.694Z,26.10
2018-02-19T23:37:19.054Z,26.00
2018-02-19T23:39:46.590Z,26.00
2018-02-19T23:42:14.531Z,25.90
2018-02-19T23:44:42.051Z,25.80
2018-02-19T23:47:10.412Z,25.80
2018-02-19T23:49:37.983Z,25.80
2018-02-19T23:52:06.326Z,25.80
2018-02-19T23:54:34.929Z,25.80
2018-02-19T23:57:03.472Z,26.80
2018-02-19T23:59:31.069Z,26.80
